sensor_id;sensor_type;location;lat;lon;timestamp;temperature;humidity
72650;SHT31;61467;50.674;4.618;2023-09-19T00:01:40;17.09;73.57
72650;SHT31;61467;50.674;4.618;2023-09-19T00:04:08;17.07;73.70
72650;SHT31;61467;50.674;4.618;2023-09-19T00:06:38;17.31;73.31
72650;SHT31;61467;50.674;4.618;2023-09-19T00:09:08;17.23;72.98
72650;SHT31;61467;50.674;4.618;2023-09-19T00:11:36;17.27;72.89
72650;SHT31;61467;50.674;4.618;2023-09-19T00:14:03;17.16;72.94
72650;SHT31;61467;50.674;4.618;2023-09-19T00:16:34;17.28;72.99
72650;SHT31;61467;50.674;4.618;2023-09-19T00:19:01;17.16;73.22
72650;SHT31;61467;50.674;4.618;2023-09-19T00:21:36;17.30;73.02
72650;SHT31;61467;50.674;4.618;2023-09-19T00:24:04;17.14;73.54
72650;SHT31;61467;50.674;4.618;2023-09-19T00:26:31;17.19;73.09
72650;SHT31;61467;50.674;4.618;2023-09-19T00:29:00;17.19;73.13
72650;SHT31;61467;50.674;4.618;2023-09-19T00:31:31;17.26;73.09
72650;SHT31;61467;50.674;4.618;2023-09-19T00:33:58;17.12;73.21
72650;SHT31;61467;50.674;4.618;2023-09-19T00:36:29;16.92;73.44
72650;SHT31;61467;50.674;4.618;2023-09-19T00:38:57;17.16;73.39
72650;SHT31;61467;50.674;4.618;2023-09-19T00:41:26;17.20;72.72
72650;SHT31;61467;50.674;4.618;2023-09-19T00:43:55;17.06;72.64
72650;SHT31;61467;50.674;4.618;2023-09-19T00:46:22;17.02;73.03
72650;SHT31;61467;50.674;4.618;2023-09-19T00:48:49;17.00;72.59
72650;SHT31;61467;50.674;4.618;2023-09-19T00:51:16;16.94;72.96
72650;SHT31;61467;50.674;4.618;2023-09-19T00:53:46;16.79;72.91
72650;SHT31;61467;50.674;4.618;2023-09-19T00:56:15;17.02;72.46
72650;SHT31;61467;50.674;4.618;2023-09-19T00:58:44;16.96;72.33
72650;SHT31;61467;50.674;4.618;2023-09-19T01:01:12;17.04;71.87
72650;SHT31;61467;50.674;4.618;2023-09-19T01:03:40;16.97;71.48
72650;SHT31;61467;50.674;4.618;2023-09-19T01:06:08;16.93;71.80
72650;SHT31;61467;50.674;4.618;2023-09-19T01:08:35;16.99;71.47
72650;SHT31;61467;50.674;4.618;2023-09-19T01:11:09;16.89;71.98
72650;SHT31;61467;50.674;4.618;2023-09-19T01:13:48;16.87;71.59
72650;SHT31;61467;50.674;4.618;2023-09-19T01:16:23;16.84;71.64
72650;SHT31;61467;50.674;4.618;2023-09-19T01:19:02;16.75;72.11
72650;SHT31;61467;50.674;4.618;2023-09-19T01:21:40;16.86;71.60
72650;SHT31;61467;50.674;4.618;2023-09-19T01:24:42;16.99;71.47
72650;SHT31;61467;50.674;4.618;2023-09-19T01:27:25;16.97;71.17
72650;SHT31;61467;50.674;4.618;2023-09-19T01:30:07;16.96;71.17
72650;SHT31;61467;50.674;4.618;2023-09-19T01:32:36;16.84;71.42
72650;SHT31;61467;50.674;4.618;2023-09-19T01:35:06;16.99;71.39
72650;SHT31;61467;50.674;4.618;2023-09-19T01:37:38;16.76;71.21
72650;SHT31;61467;50.674;4.618;2023-09-19T01:40:11;16.77;71.09
72650;SHT31;61467;50.674;4.618;2023-09-19T01:42:54;16.82;71.03
72650;SHT31;61467;50.674;4.618;2023-09-19T01:45:33;16.86;70.80
72650;SHT31;61467;50.674;4.618;2023-09-19T01:48:14;16.73;70.63
72650;SHT31;61467;50.674;4.618;2023-09-19T01:50:49;16.77;70.46
72650;SHT31;61467;50.674;4.618;2023-09-19T01:53:23;16.69;70.73
72650;SHT31;61467;50.674;4.618;2023-09-19T01:55:51;16.73;70.53
72650;SHT31;61467;50.674;4.618;2023-09-19T01:58:22;16.71;70.28
72650;SHT31;61467;50.674;4.618;2023-09-19T02:00:55;16.73;70.49
72650;SHT31;61467;50.674;4.618;2023-09-19T02:03:23;16.83;70.13
72650;SHT31;61467;50.674;4.618;2023-09-19T02:05:51;16.69;70.34
72650;SHT31;61467;50.674;4.618;2023-09-19T02:08:20;16.76;70.12
72650;SHT31;61467;50.674;4.618;2023-09-19T02:10:49;16.84;70.43
72650;SHT31;61467;50.674;4.618;2023-09-19T02:13:16;16.51;71.08
72650;SHT31;61467;50.674;4.618;2023-09-19T02:15:44;16.69;70.82
72650;SHT31;61467;50.674;4.618;2023-09-19T02:18:13;16.58;70.65
72650;SHT31;61467;50.674;4.618;2023-09-19T02:20:40;16.58;71.07
72650;SHT31;61467;50.674;4.618;2023-09-19T02:23:07;16.56;70.68
72650;SHT31;61467;50.674;4.618;2023-09-19T02:25:35;16.55;70.90
72650;SHT31;61467;50.674;4.618;2023-09-19T02:28:04;16.24;71.79
72650;SHT31;61467;50.674;4.618;2023-09-19T02:30:31;16.35;71.86
72650;SHT31;61467;50.674;4.618;2023-09-19T02:32:58;16.47;71.23
72650;SHT31;61467;50.674;4.618;2023-09-19T02:35:28;16.49;71.19
72650;SHT31;61467;50.674;4.618;2023-09-19T02:37:59;16.72;71.06
72650;SHT31;61467;50.674;4.618;2023-09-19T02:40:26;16.68;70.31
72650;SHT31;61467;50.674;4.618;2023-09-19T02:42:54;16.55;70.40
72650;SHT31;61467;50.674;4.618;2023-09-19T02:45:24;16.68;70.47
72650;SHT31;61467;50.674;4.618;2023-09-19T02:47:51;16.69;70.24
72650;SHT31;61467;50.674;4.618;2023-09-19T02:50:18;16.59;70.32
72650;SHT31;61467;50.674;4.618;2023-09-19T02:52:47;16.65;70.01
72650;SHT31;61467;50.674;4.618;2023-09-19T02:55:15;16.52;70.50
72650;SHT31;61467;50.674;4.618;2023-09-19T02:57:46;16.58;70.65
72650;SHT31;61467;50.674;4.618;2023-09-19T03:00:13;16.40;70.94
72650;SHT31;61467;50.674;4.618;2023-09-19T03:02:40;16.45;70.80
72650;SHT31;61467;50.674;4.618;2023-09-19T03:05:08;16.44;71.05
72650;SHT31;61467;50.674;4.618;2023-09-19T03:07:38;16.52;71.18
72650;SHT31;61467;50.674;4.618;2023-09-19T03:10:07;16.38;70.82
72650;SHT31;61467;50.674;4.618;2023-09-19T03:12:36;16.38;71.72
72650;SHT31;61467;50.674;4.618;2023-09-19T03:15:04;16.36;72.68
72650;SHT31;61467;50.674;4.618;2023-09-19T03:17:31;16.00;73.71
72650;SHT31;61467;50.674;4.618;2023-09-19T03:19:58;16.03;73.79
72650;SHT31;61467;50.674;4.618;2023-09-19T03:22:26;16.11;73.84
72650;SHT31;61467;50.674;4.618;2023-09-19T03:24:53;16.25;73.62
72650;SHT31;61467;50.674;4.618;2023-09-19T03:27:21;16.11;73.94
72650;SHT31;61467;50.674;4.618;2023-09-19T03:29:47;16.20;73.97
72650;SHT31;61467;50.674;4.618;2023-09-19T03:32:14;16.35;73.57
72650;SHT31;61467;50.674;4.618;2023-09-19T03:34:41;16.41;73.05
72650;SHT31;61467;50.674;4.618;2023-09-19T03:37:09;16.47;72.73
72650;SHT31;61467;50.674;4.618;2023-09-19T03:39:36;16.49;72.67
72650;SHT31;61467;50.674;4.618;2023-09-19T03:42:03;16.42;72.81
72650;SHT31;61467;50.674;4.618;2023-09-19T03:44:32;16.41;72.26
72650;SHT31;61467;50.674;4.618;2023-09-19T03:46:58;16.55;72.38
72650;SHT31;61467;50.674;4.618;2023-09-19T03:49:26;16.52;72.43
72650;SHT31;61467;50.674;4.618;2023-09-19T03:51:52;16.15;73.44
72650;SHT31;61467;50.674;4.618;2023-09-19T03:54:19;16.03;73.69
72650;SHT31;61467;50.674;4.618;2023-09-19T03:56:46;16.14;74.25
72650;SHT31;61467;50.674;4.618;2023-09-19T03:59:13;16.38;73.36
72650;SHT31;61467;50.674;4.618;2023-09-19T04:01:41;16.26;73.15
72650;SHT31;61467;50.674;4.618;2023-09-19T04:04:08;16.32;73.28
72650;SHT31;61467;50.674;4.618;2023-09-19T04:06:35;16.28;73.44
72650;SHT31;61467;50.674;4.618;2023-09-19T04:09:03;16.34;73.19
72650;SHT31;61467;50.674;4.618;2023-09-19T04:11:32;16.35;73.19
72650;SHT31;61467;50.674;4.618;2023-09-19T04:13:59;16.40;72.73
72650;SHT31;61467;50.674;4.618;2023-09-19T04:16:26;16.15;73.12
72650;SHT31;61467;50.674;4.618;2023-09-19T04:18:54;16.25;72.87
72650;SHT31;61467;50.674;4.618;2023-09-19T04:21:21;16.47;72.85
72650;SHT31;61467;50.674;4.618;2023-09-19T04:23:48;16.25;72.53
72650;SHT31;61467;50.674;4.618;2023-09-19T04:26:14;16.21;72.80
72650;SHT31;61467;50.674;4.618;2023-09-19T04:28:42;16.22;72.93
72650;SHT31;61467;50.674;4.618;2023-09-19T04:31:09;16.20;72.84
72650;SHT31;61467;50.674;4.618;2023-09-19T04:33:37;15.97;73.04
72650;SHT31;61467;50.674;4.618;2023-09-19T04:36:05;15.66;74.37
72650;SHT31;61467;50.674;4.618;2023-09-19T04:38:32;15.93;73.57
72650;SHT31;61467;50.674;4.618;2023-09-19T04:40:59;15.96;74.12
72650;SHT31;61467;50.674;4.618;2023-09-19T04:43:26;15.84;74.01
72650;SHT31;61467;50.674;4.618;2023-09-19T04:45:54;16.12;73.15
72650;SHT31;61467;50.674;4.618;2023-09-19T04:48:21;16.10;73.07
72650;SHT31;61467;50.674;4.618;2023-09-19T04:50:49;16.24;72.49
72650;SHT31;61467;50.674;4.618;2023-09-19T04:53:18;16.08;72.78
72650;SHT31;61467;50.674;4.618;2023-09-19T04:55:50;16.14;72.86
72650;SHT31;61467;50.674;4.618;2023-09-19T04:58:17;16.03;73.02
72650;SHT31;61467;50.674;4.618;2023-09-19T05:00:45;16.21;72.55
72650;SHT31;61467;50.674;4.618;2023-09-19T05:03:11;16.07;73.37
72650;SHT31;61467;50.674;4.618;2023-09-19T05:05:38;16.08;72.88
72650;SHT31;61467;50.674;4.618;2023-09-19T05:08:08;16.10;72.81
72650;SHT31;61467;50.674;4.618;2023-09-19T05:10:36;16.14;72.69
72650;SHT31;61467;50.674;4.618;2023-09-19T05:13:04;15.97;72.74
72650;SHT31;61467;50.674;4.618;2023-09-19T05:15:33;15.94;73.44
72650;SHT31;61467;50.674;4.618;2023-09-19T05:18:01;15.86;73.54
72650;SHT31;61467;50.674;4.618;2023-09-19T05:20:29;15.54;74.67
72650;SHT31;61467;50.674;4.618;2023-09-19T05:22:59;15.87;74.06
72650;SHT31;61467;50.674;4.618;2023-09-19T05:25:27;15.94;73.68
72650;SHT31;61467;50.674;4.618;2023-09-19T05:27:57;15.97;73.10
72650;SHT31;61467;50.674;4.618;2023-09-19T05:30:25;15.79;73.82
72650;SHT31;61467;50.674;4.618;2023-09-19T05:32:53;15.69;74.03
72650;SHT31;61467;50.674;4.618;2023-09-19T05:35:20;15.53;74.68
72650;SHT31;61467;50.674;4.618;2023-09-19T05:37:48;15.46;74.85
72650;SHT31;61467;50.674;4.618;2023-09-19T05:40:16;15.62;74.64
72650;SHT31;61467;50.674;4.618;2023-09-19T05:42:43;15.69;74.54
72650;SHT31;61467;50.674;4.618;2023-09-19T05:45:12;15.79;74.06
72650;SHT31;61467;50.674;4.618;2023-09-19T05:47:39;15.71;74.18
72650;SHT31;61467;50.674;4.618;2023-09-19T05:50:11;15.66;74.57
72650;SHT31;61467;50.674;4.618;2023-09-19T05:52:38;15.74;74.11
72650;SHT31;61467;50.674;4.618;2023-09-19T05:55:06;15.59;74.19
72650;SHT31;61467;50.674;4.618;2023-09-19T05:57:34;15.44;74.92
72650;SHT31;61467;50.674;4.618;2023-09-19T06:00:01;15.66;74.46
72650;SHT31;61467;50.674;4.618;2023-09-19T06:02:35;15.47;74.84
72650;SHT31;61467;50.674;4.618;2023-09-19T06:05:03;15.54;74.73
72650;SHT31;61467;50.674;4.618;2023-09-19T06:07:31;15.84;74.12
72650;SHT31;61467;50.674;4.618;2023-09-19T06:10:02;15.98;73.36
72650;SHT31;61467;50.674;4.618;2023-09-19T06:12:31;15.56;74.74
72650;SHT31;61467;50.674;4.618;2023-09-19T06:15:03;15.63;74.87
72650;SHT31;61467;50.674;4.618;2023-09-19T06:17:31;15.69;74.86
72650;SHT31;61467;50.674;4.618;2023-09-19T06:19:59;15.77;74.54
72650;SHT31;61467;50.674;4.618;2023-09-19T06:22:26;15.71;73.98
72650;SHT31;61467;50.674;4.618;2023-09-19T06:24:53;15.70;74.22
72650;SHT31;61467;50.674;4.618;2023-09-19T06:27:20;15.67;74.51
72650;SHT31;61467;50.674;4.618;2023-09-19T06:29:47;15.83;74.21
72650;SHT31;61467;50.674;4.618;2023-09-19T06:32:14;15.96;73.24
72650;SHT31;61467;50.674;4.618;2023-09-19T06:34:41;16.04;73.21
72650;SHT31;61467;50.674;4.618;2023-09-19T06:37:10;16.03;73.39
72650;SHT31;61467;50.674;4.618;2023-09-19T06:39:37;16.05;73.41
72650;SHT31;61467;50.674;4.618;2023-09-19T06:42:04;16.00;73.43
72650;SHT31;61467;50.674;4.618;2023-09-19T06:44:31;15.73;73.88
72650;SHT31;61467;50.674;4.618;2023-09-19T06:46:58;16.14;73.12
72650;SHT31;61467;50.674;4.618;2023-09-19T06:49:25;15.98;73.19
72650;SHT31;61467;50.674;4.618;2023-09-19T06:51:54;15.90;73.79
72650;SHT31;61467;50.674;4.618;2023-09-19T06:54:24;16.20;72.90
72650;SHT31;61467;50.674;4.618;2023-09-19T06:56:51;16.26;72.50
72650;SHT31;61467;50.674;4.618;2023-09-19T06:59:17;16.26;72.84
72650;SHT31;61467;50.674;4.618;2023-09-19T07:01:44;16.21;72.09
72650;SHT31;61467;50.674;4.618;2023-09-19T07:04:12;16.21;72.65
72650;SHT31;61467;50.674;4.618;2023-09-19T07:06:39;16.26;72.51
72650;SHT31;61467;50.674;4.618;2023-09-19T07:09:06;16.12;72.63
72650;SHT31;61467;50.674;4.618;2023-09-19T07:11:35;16.29;72.08
72650;SHT31;61467;50.674;4.618;2023-09-19T07:14:02;16.61;71.66
72650;SHT31;61467;50.674;4.618;2023-09-19T07:16:31;16.87;70.97
72650;SHT31;61467;50.674;4.618;2023-09-19T07:18:57;16.53;71.55
72650;SHT31;61467;50.674;4.618;2023-09-19T07:21:24;16.59;71.17
72650;SHT31;61467;50.674;4.618;2023-09-19T07:23:51;16.75;70.89
72650;SHT31;61467;50.674;4.618;2023-09-19T07:26:18;16.38;71.87
72650;SHT31;61467;50.674;4.618;2023-09-19T07:28:46;16.76;71.19
72650;SHT31;61467;50.674;4.618;2023-09-19T07:31:13;16.93;70.87
72650;SHT31;61467;50.674;4.618;2023-09-19T07:33:40;16.76;70.91
72650;SHT31;61467;50.674;4.618;2023-09-19T07:36:10;16.65;71.55
72650;SHT31;61467;50.674;4.618;2023-09-19T07:38:39;16.52;71.98
72650;SHT31;61467;50.674;4.618;2023-09-19T07:41:06;16.92;70.86
72650;SHT31;61467;50.674;4.618;2023-09-19T07:43:34;16.72;71.22
72650;SHT31;61467;50.674;4.618;2023-09-19T07:46:04;17.20;69.56
72650;SHT31;61467;50.674;4.618;2023-09-19T07:48:34;17.10;69.93
72650;SHT31;61467;50.674;4.618;2023-09-19T07:51:03;16.94;70.10
72650;SHT31;61467;50.674;4.618;2023-09-19T07:53:31;16.93;70.27
72650;SHT31;61467;50.674;4.618;2023-09-19T07:56:04;16.92;70.28
72650;SHT31;61467;50.674;4.618;2023-09-19T07:58:31;16.90;70.47
72650;SHT31;61467;50.674;4.618;2023-09-19T08:01:04;17.10;69.50
72650;SHT31;61467;50.674;4.618;2023-09-19T08:03:32;17.14;69.67
72650;SHT31;61467;50.674;4.618;2023-09-19T08:05:59;17.04;69.96
72650;SHT31;61467;50.674;4.618;2023-09-19T08:08:26;17.09;70.20
72650;SHT31;61467;50.674;4.618;2023-09-19T08:10:53;17.45;68.84
72650;SHT31;61467;50.674;4.618;2023-09-19T08:13:22;17.51;68.86
72650;SHT31;61467;50.674;4.618;2023-09-19T08:15:48;17.28;69.73
72650;SHT31;61467;50.674;4.618;2023-09-19T08:18:16;17.44;68.86
72650;SHT31;61467;50.674;4.618;2023-09-19T08:20:43;17.55;69.01
72650;SHT31;61467;50.674;4.618;2023-09-19T08:23:11;17.67;67.59
72650;SHT31;61467;50.674;4.618;2023-09-19T08:25:38;17.62;67.86
72650;SHT31;61467;50.674;4.618;2023-09-19T08:28:05;17.52;67.97
72650;SHT31;61467;50.674;4.618;2023-09-19T08:30:34;17.67;67.89
72650;SHT31;61467;50.674;4.618;2023-09-19T08:33:01;17.77;67.84
72650;SHT31;61467;50.674;4.618;2023-09-19T08:35:31;17.95;67.74
72650;SHT31;61467;50.674;4.618;2023-09-19T08:37:58;17.72;67.57
72650;SHT31;61467;50.674;4.618;2023-09-19T08:40:26;17.61;67.18
72650;SHT31;61467;50.674;4.618;2023-09-19T08:42:55;17.79;67.14
72650;SHT31;61467;50.674;4.618;2023-09-19T08:45:24;17.89;67.01
72650;SHT31;61467;50.674;4.618;2023-09-19T08:48:11;17.68;67.34
72650;SHT31;61467;50.674;4.618;2023-09-19T08:50:43;17.70;67.84
72650;SHT31;61467;50.674;4.618;2023-09-19T08:53:19;17.92;67.51
72650;SHT31;61467;50.674;4.618;2023-09-19T08:55:50;18.19;66.38
72650;SHT31;61467;50.674;4.618;2023-09-19T08:58:20;18.13;66.15
72650;SHT31;61467;50.674;4.618;2023-09-19T09:00:50;18.23;66.28
72650;SHT31;61467;50.674;4.618;2023-09-19T09:03:18;18.08;66.63
72650;SHT31;61467;50.674;4.618;2023-09-19T09:05:50;18.39;65.22
72650;SHT31;61467;50.674;4.618;2023-09-19T09:08:18;18.56;64.90
72650;SHT31;61467;50.674;4.618;2023-09-19T09:10:47;18.59;64.40
72650;SHT31;61467;50.674;4.618;2023-09-19T09:13:14;18.53;65.57
72650;SHT31;61467;50.674;4.618;2023-09-19T09:15:42;18.26;64.29
72650;SHT31;61467;50.674;4.618;2023-09-19T09:18:12;18.23;64.96
72650;SHT31;61467;50.674;4.618;2023-09-19T09:20:38;18.26;65.26
72650;SHT31;61467;50.674;4.618;2023-09-19T09:23:07;18.30;65.44
72650;SHT31;61467;50.674;4.618;2023-09-19T09:25:49;18.57;65.34
72650;SHT31;61467;50.674;4.618;2023-09-19T09:28:21;18.81;64.47
72650;SHT31;61467;50.674;4.618;2023-09-19T09:30:48;18.97;63.41
72650;SHT31;61467;50.674;4.618;2023-09-19T09:33:16;18.91;62.22
72650;SHT31;61467;50.674;4.618;2023-09-19T09:35:49;18.73;63.06
72650;SHT31;61467;50.674;4.618;2023-09-19T09:38:24;19.04;62.68
72650;SHT31;61467;50.674;4.618;2023-09-19T09:40:58;19.00;63.02
72650;SHT31;61467;50.674;4.618;2023-09-19T09:43:31;18.90;62.58
72650;SHT31;61467;50.674;4.618;2023-09-19T09:46:14;19.00;62.60
72650;SHT31;61467;50.674;4.618;2023-09-19T09:49:00;18.87;62.98
72650;SHT31;61467;50.674;4.618;2023-09-19T09:51:46;19.10;62.95
72650;SHT31;61467;50.674;4.618;2023-09-19T09:54:25;19.23;62.52
72650;SHT31;61467;50.674;4.618;2023-09-19T09:57:00;18.92;63.01
72650;SHT31;61467;50.674;4.618;2023-09-19T09:59:46;19.25;62.01
72650;SHT31;61467;50.674;4.618;2023-09-19T10:02:14;19.05;62.20
72650;SHT31;61467;50.674;4.618;2023-09-19T10:04:46;18.97;62.26
72650;SHT31;61467;50.674;4.618;2023-09-19T10:07:28;18.94;62.03
72650;SHT31;61467;50.674;4.618;2023-09-19T10:10:01;19.05;62.75
72650;SHT31;61467;50.674;4.618;2023-09-19T10:12:43;18.92;62.15
72650;SHT31;61467;50.674;4.618;2023-09-19T10:15:14;19.04;61.46
72650;SHT31;61467;50.674;4.618;2023-09-19T10:17:43;18.92;61.08
72650;SHT31;61467;50.674;4.618;2023-09-19T10:20:15;19.04;60.69
72650;SHT31;61467;50.674;4.618;2023-09-19T10:23:04;18.91;61.25
72650;SHT31;61467;50.674;4.618;2023-09-19T10:25:37;19.02;61.36
72650;SHT31;61467;50.674;4.618;2023-09-19T10:28:05;19.25;61.00
72650;SHT31;61467;50.674;4.618;2023-09-19T10:30:37;19.18;61.17
72650;SHT31;61467;50.674;4.618;2023-09-19T10:33:04;19.16;60.88
72650;SHT31;61467;50.674;4.618;2023-09-19T10:35:32;19.19;60.86
72650;SHT31;61467;50.674;4.618;2023-09-19T10:38:00;19.25;60.62
72650;SHT31;61467;50.674;4.618;2023-09-19T10:40:28;19.26;60.56
72650;SHT31;61467;50.674;4.618;2023-09-19T10:43:01;19.33;60.84
72650;SHT31;61467;50.674;4.618;2023-09-19T10:45:31;19.67;60.76
72650;SHT31;61467;50.674;4.618;2023-09-19T10:47:57;19.55;60.33
72650;SHT31;61467;50.674;4.618;2023-09-19T10:50:24;19.55;60.49
72650;SHT31;61467;50.674;4.618;2023-09-19T10:52:53;19.70;60.33
72650;SHT31;61467;50.674;4.618;2023-09-19T10:55:27;19.96;60.17
72650;SHT31;61467;50.674;4.618;2023-09-19T10:57:55;20.20;59.10
72650;SHT31;61467;50.674;4.618;2023-09-19T11:00:53;20.24;58.25
72650;SHT31;61467;50.674;4.618;2023-09-19T11:03:21;20.10;58.81
72650;SHT31;61467;50.674;4.618;2023-09-19T11:06:06;19.93;58.71
72650;SHT31;61467;50.674;4.618;2023-09-19T11:08:58;19.87;59.62
72650;SHT31;61467;50.674;4.618;2023-09-19T11:11:39;20.14;59.57
72650;SHT31;61467;50.674;4.618;2023-09-19T11:14:30;20.22;58.19
72650;SHT31;61467;50.674;4.618;2023-09-19T11:20:31;20.52;58.10
72650;SHT31;61467;50.674;4.618;2023-09-19T11:23:20;20.32;57.93
72650;SHT31;61467;50.674;4.618;2023-09-19T11:25:56;20.31;58.56
72650;SHT31;61467;50.674;4.618;2023-09-19T11:28:30;20.25;58.61
72650;SHT31;61467;50.674;4.618;2023-09-19T11:30:57;20.31;57.69
72650;SHT31;61467;50.674;4.618;2023-09-19T11:33:25;20.45;57.76
72650;SHT31;61467;50.674;4.618;2023-09-19T11:36:02;20.61;57.39
72650;SHT31;61467;50.674;4.618;2023-09-19T11:38:57;20.49;58.41
72650;SHT31;61467;50.674;4.618;2023-09-19T11:41:39;20.56;57.81
72650;SHT31;61467;50.674;4.618;2023-09-19T11:44:36;20.86;58.17
72650;SHT31;61467;50.674;4.618;2023-09-19T11:47:05;21.07;58.12
72650;SHT31;61467;50.674;4.618;2023-09-19T11:49:32;21.02;57.25
72650;SHT31;61467;50.674;4.618;2023-09-19T11:52:03;20.81;57.62
72650;SHT31;61467;50.674;4.618;2023-09-19T11:54:32;20.88;57.73
72650;SHT31;61467;50.674;4.618;2023-09-19T11:56:59;20.75;57.62
72650;SHT31;61467;50.674;4.618;2023-09-19T11:59:28;20.58;57.84
72650;SHT31;61467;50.674;4.618;2023-09-19T12:01:56;20.71;57.74
72650;SHT31;61467;50.674;4.618;2023-09-19T12:04:37;20.89;57.29
72650;SHT31;61467;50.674;4.618;2023-09-19T12:07:06;20.96;57.01
72650;SHT31;61467;50.674;4.618;2023-09-19T12:09:39;20.93;56.80
72650;SHT31;61467;50.674;4.618;2023-09-19T12:12:06;20.93;56.87
72650;SHT31;61467;50.674;4.618;2023-09-19T12:14:33;20.72;57.86
72650;SHT31;61467;50.674;4.618;2023-09-19T12:17:00;20.73;58.58
72650;SHT31;61467;50.674;4.618;2023-09-19T12:19:29;20.81;58.11
72650;SHT31;61467;50.674;4.618;2023-09-19T12:21:59;20.69;58.15
72650;SHT31;61467;50.674;4.618;2023-09-19T12:24:31;20.61;58.56
72650;SHT31;61467;50.674;4.618;2023-09-19T12:27:02;20.49;58.54
72650;SHT31;61467;50.674;4.618;2023-09-19T12:29:31;20.52;58.83
72650;SHT31;61467;50.674;4.618;2023-09-19T12:31:59;20.64;58.34
72650;SHT31;61467;50.674;4.618;2023-09-19T12:34:30;20.52;58.76
72650;SHT31;61467;50.674;4.618;2023-09-19T12:37:04;20.31;59.02
72650;SHT31;61467;50.674;4.618;2023-09-19T12:39:42;20.31;58.96
72650;SHT31;61467;50.674;4.618;2023-09-19T12:42:10;20.32;59.57
72650;SHT31;61467;50.674;4.618;2023-09-19T12:44:41;20.37;59.54
72650;SHT31;61467;50.674;4.618;2023-09-19T12:47:14;20.56;58.85
72650;SHT31;61467;50.674;4.618;2023-09-19T12:50:10;20.71;58.53
72650;SHT31;61467;50.674;4.618;2023-09-19T12:52:43;20.61;58.70
72650;SHT31;61467;50.674;4.618;2023-09-19T12:55:27;20.49;59.18
72650;SHT31;61467;50.674;4.618;2023-09-19T12:58:12;20.52;59.83
72650;SHT31;61467;50.674;4.618;2023-09-19T13:00:41;20.51;59.25
72650;SHT31;61467;50.674;4.618;2023-09-19T13:03:14;20.18;59.50
72650;SHT31;61467;50.674;4.618;2023-09-19T13:05:49;20.34;59.44
72650;SHT31;61467;50.674;4.618;2023-09-19T13:08:18;20.16;59.59
72650;SHT31;61467;50.674;4.618;2023-09-19T13:11:08;20.11;59.96
72650;SHT31;61467;50.674;4.618;2023-09-19T13:13:38;20.27;60.27
72650;SHT31;61467;50.674;4.618;2023-09-19T13:16:07;20.22;60.18
72650;SHT31;61467;50.674;4.618;2023-09-19T13:18:45;20.64;59.69
72650;SHT31;61467;50.674;4.618;2023-09-19T13:21:12;20.52;59.60
72650;SHT31;61467;50.674;4.618;2023-09-19T13:23:51;20.59;58.96
72650;SHT31;61467;50.674;4.618;2023-09-19T13:26:21;20.34;59.57
72650;SHT31;61467;50.674;4.618;2023-09-19T13:28:48;20.38;59.87
72650;SHT31;61467;50.674;4.618;2023-09-19T13:31:15;20.42;59.75
72650;SHT31;61467;50.674;4.618;2023-09-19T13:33:45;20.31;60.13
72650;SHT31;61467;50.674;4.618;2023-09-19T13:36:12;20.42;59.92
72650;SHT31;61467;50.674;4.618;2023-09-19T13:38:39;20.48;59.29
72650;SHT31;61467;50.674;4.618;2023-09-19T13:41:08;20.22;60.41
72650;SHT31;61467;50.674;4.618;2023-09-19T13:43:37;20.31;59.84
72650;SHT31;61467;50.674;4.618;2023-09-19T13:46:04;20.16;59.47
72650;SHT31;61467;50.674;4.618;2023-09-19T13:48:33;19.96;60.36
72650;SHT31;61467;50.674;4.618;2023-09-19T13:51:02;20.16;60.35
72650;SHT31;61467;50.674;4.618;2023-09-19T13:53:30;20.25;60.13
72650;SHT31;61467;50.674;4.618;2023-09-19T13:55:57;20.11;60.35
72650;SHT31;61467;50.674;4.618;2023-09-19T13:58:23;20.10;60.47
72650;SHT31;61467;50.674;4.618;2023-09-19T14:00:52;20.27;60.10
72650;SHT31;61467;50.674;4.618;2023-09-19T14:03:20;20.16;59.69
72650;SHT31;61467;50.674;4.618;2023-09-19T14:05:47;20.42;59.70
72650;SHT31;61467;50.674;4.618;2023-09-19T14:08:17;20.42;59.62
72650;SHT31;61467;50.674;4.618;2023-09-19T14:10:44;20.32;59.76
72650;SHT31;61467;50.674;4.618;2023-09-19T14:13:11;20.31;59.73
72650;SHT31;61467;50.674;4.618;2023-09-19T14:15:38;20.42;59.71
72650;SHT31;61467;50.674;4.618;2023-09-19T14:18:07;20.49;59.72
72650;SHT31;61467;50.674;4.618;2023-09-19T14:20:38;20.44;59.38
72650;SHT31;61467;50.674;4.618;2023-09-19T14:23:05;20.35;59.73
72650;SHT31;61467;50.674;4.618;2023-09-19T14:25:34;20.25;59.50
72650;SHT31;61467;50.674;4.618;2023-09-19T14:28:01;20.09;60.45
72650;SHT31;61467;50.674;4.618;2023-09-19T14:30:28;20.32;60.17
72650;SHT31;61467;50.674;4.618;2023-09-19T14:32:55;20.11;60.12
72650;SHT31;61467;50.674;4.618;2023-09-19T14:35:24;20.11;59.79
72650;SHT31;61467;50.674;4.618;2023-09-19T14:37:51;20.06;60.49
72650;SHT31;61467;50.674;4.618;2023-09-19T14:40:18;20.11;60.26
72650;SHT31;61467;50.674;4.618;2023-09-19T14:42:46;20.24;60.08
72650;SHT31;61467;50.674;4.618;2023-09-19T14:45:13;20.27;59.51
72650;SHT31;61467;50.674;4.618;2023-09-19T14:47:43;20.20;59.34
72650;SHT31;61467;50.674;4.618;2023-09-19T14:50:10;20.17;59.62
72650;SHT31;61467;50.674;4.618;2023-09-19T14:52:39;20.32;60.34
72650;SHT31;61467;50.674;4.618;2023-09-19T14:55:07;20.48;59.80
72650;SHT31;61467;50.674;4.618;2023-09-19T14:57:40;20.25;60.01
72650;SHT31;61467;50.674;4.618;2023-09-19T15:00:11;20.17;59.75
72650;SHT31;61467;50.674;4.618;2023-09-19T15:02:38;20.11;60.75
72650;SHT31;61467;50.674;4.618;2023-09-19T15:05:06;20.09;60.32
72650;SHT31;61467;50.674;4.618;2023-09-19T15:07:35;20.17;60.68
72650;SHT31;61467;50.674;4.618;2023-09-19T15:10:05;20.37;60.46
72650;SHT31;61467;50.674;4.618;2023-09-19T15:12:35;20.28;60.65
72650;SHT31;61467;50.674;4.618;2023-09-19T15:15:03;20.11;60.30
72650;SHT31;61467;50.674;4.618;2023-09-19T15:17:32;20.09;60.71
72650;SHT31;61467;50.674;4.618;2023-09-19T15:19:59;20.21;60.81
72650;SHT31;61467;50.674;4.618;2023-09-19T15:22:27;20.35;60.44
72650;SHT31;61467;50.674;4.618;2023-09-19T15:24:54;20.22;60.35
72650;SHT31;61467;50.674;4.618;2023-09-19T15:27:23;20.34;59.83
72650;SHT31;61467;50.674;4.618;2023-09-19T15:29:50;20.35;59.81
72650;SHT31;61467;50.674;4.618;2023-09-19T15:32:16;19.96;60.46
72650;SHT31;61467;50.674;4.618;2023-09-19T15:34:43;20.24;60.47
72650;SHT31;61467;50.674;4.618;2023-09-19T15:37:10;20.13;60.38
72650;SHT31;61467;50.674;4.618;2023-09-19T15:39:37;20.30;60.12
72650;SHT31;61467;50.674;4.618;2023-09-19T15:42:04;20.18;60.35
72650;SHT31;61467;50.674;4.618;2023-09-19T15:44:33;20.14;61.04
72650;SHT31;61467;50.674;4.618;2023-09-19T15:47:02;20.17;60.56
72650;SHT31;61467;50.674;4.618;2023-09-19T15:49:29;19.96;61.34
72650;SHT31;61467;50.674;4.618;2023-09-19T15:51:56;20.17;60.74